Time;durP1;ratioP1;P1;durP2;ratioP2;P2;SDS_P1;SDS_P2;PMS_P1;PMS_P2;Temp;Humidity;BMP_temperature;BMP_pressure;BME280_temperature;BME280_humidity;BME280_pressure;Samples;Min_cycle;Max_cycle;Signal;HPM_P1;HPM_P2
2023/07/10 00:01:03;;;;;;;9.17;5.57;;;19.50;59.00;;;;;;4894052;29;20041;-87
2023/07/10 00:03:31;;;;;;;8.63;5.68;;;19.50;58.90;;;;;;4880559;29;20143;-86
2023/07/10 00:06:00;;;;;;;9.02;5.57;;;19.50;59.10;;;;;;4896148;29;20056;-86
2023/07/10 00:08:27;;;;;;;9.30;5.47;;;19.50;59.10;;;;;;4888130;29;20160;-87
2023/07/10 00:10:55;;;;;;;10.55;5.40;;;19.50;59.20;;;;;;4896498;29;20395;-86
2023/07/10 00:13:22;;;;;;;9.13;5.27;;;19.30;59.00;;;;;;4896019;29;20048;-86
2023/07/10 00:15:51;;;;;;;10.05;5.43;;;19.30;58.80;;;;;;4895586;29;20052;-87
2023/07/10 00:18:21;;;;;;;9.55;5.80;;;19.30;59.40;;;;;;4880350;29;20277;-86
2023/07/10 00:20:49;;;;;;;11.60;5.93;;;19.20;59.70;;;;;;4878621;29;20068;-87
2023/07/10 00:23:17;;;;;;;10.38;6.28;;;19.20;60.00;;;;;;4895944;29;20037;-86
2023/07/10 00:25:44;;;;;;;11.17;6.30;;;19.10;59.90;;;;;;4896302;29;20530;-86
2023/07/10 00:28:17;;;;;;;15.55;6.22;;;19.00;60.40;;;;;;4886438;29;20040;-86
2023/07/10 00:30:45;;;;;;;9.52;6.18;;;18.90;60.50;;;;;;4880458;29;20049;-86
2023/07/10 00:33:14;;;;;;;11.60;6.88;;;18.80;60.80;;;;;;4885331;29;20049;-87
2023/07/10 00:35:42;;;;;;;10.93;6.22;;;18.90;61.20;;;;;;4895968;29;20049;-86
2023/07/10 00:38:30;;;;;;;10.43;6.97;;;18.90;61.20;;;;;;4895943;29;20045;-86
2023/07/10 00:41:00;;;;;;;11.48;5.90;;;18.90;61.00;;;;;;4894288;29;20511;-86
2023/07/10 00:43:42;;;;;;;10.10;6.35;;;18.90;61.00;;;;;;4893937;29;20059;-86
2023/07/10 00:46:42;;;;;;;10.95;6.47;;;18.90;61.20;;;;;;4893774;29;20483;-86
2023/07/10 00:49:23;;;;;;;11.52;6.60;;;18.80;61.00;;;;;;4871971;29;20048;-86
2023/07/10 00:52:15;;;;;;;10.10;5.67;;;18.80;61.60;;;;;;4879079;29;20101;-86
2023/07/10 00:54:47;;;;;;;10.18;6.63;;;18.90;61.20;;;;;;4878025;29;20510;-86
2023/07/10 00:57:20;;;;;;;12.15;6.35;;;18.80;61.50;;;;;;4913467;29;20123;-86
2023/07/10 00:59:49;;;;;;;11.40;6.78;;;18.70;61.30;;;;;;4895599;29;20084;-86
2023/07/10 01:02:19;;;;;;;11.00;6.60;;;18.70;61.70;;;;;;4896675;29;20046;-86
2023/07/10 01:04:57;;;;;;;11.37;6.50;;;18.70;61.60;;;;;;4895368;29;20100;-87
2023/07/10 01:07:27;;;;;;;12.52;7.13;;;18.60;61.70;;;;;;4882043;29;20412;-86
2023/07/10 01:09:59;;;;;;;10.02;6.63;;;18.60;62.00;;;;;;4898886;29;20045;-86
2023/07/10 01:12:28;;;;;;;12.05;6.68;;;18.60;62.20;;;;;;4878989;29;20045;-86
2023/07/10 01:14:56;;;;;;;11.40;7.03;;;18.60;62.20;;;;;;4908766;29;20052;-87
2023/07/10 01:17:24;;;;;;;10.60;6.93;;;18.60;62.30;;;;;;4898908;29;20052;-87
2023/07/10 01:19:57;;;;;;;11.80;7.30;;;18.50;62.40;;;;;;4883543;29;20587;-87
2023/07/10 01:22:24;;;;;;;13.13;7.15;;;18.50;62.10;;;;;;4898948;29;20534;-86
2023/07/10 01:24:52;;;;;;;11.55;7.00;;;18.50;61.70;;;;;;4883830;29;20049;-86
2023/07/10 01:27:21;;;;;;;10.85;7.28;;;18.50;61.80;;;;;;4886775;29;20220;-86
2023/07/10 01:29:56;;;;;;;13.30;6.97;;;18.50;62.10;;;;;;4898799;29;20041;-87
2023/07/10 01:32:24;;;;;;;11.63;6.57;;;18.50;62.40;;;;;;4897858;29;20048;-88
2023/07/10 01:34:55;;;;;;;11.13;6.68;;;18.50;62.60;;;;;;4883401;29;20582;-87
2023/07/10 01:37:22;;;;;;;10.52;6.50;;;18.50;62.30;;;;;;4883110;29;20052;-86
2023/07/10 01:39:52;;;;;;;11.63;6.93;;;18.50;62.20;;;;;;4888676;29;20128;-86
2023/07/10 01:42:20;;;;;;;10.43;6.80;;;18.50;61.90;;;;;;4898697;29;20419;-86
2023/07/10 01:44:49;;;;;;;10.10;6.40;;;18.50;61.80;;;;;;4882842;29;20040;-86
2023/07/10 01:47:17;;;;;;;10.05;6.45;;;18.50;61.90;;;;;;4904377;29;20514;-86
2023/07/10 01:49:50;;;;;;;10.10;6.60;;;18.50;61.80;;;;;;4896744;29;20440;-86
2023/07/10 01:52:20;;;;;;;11.70;6.60;;;18.50;61.90;;;;;;4896592;29;20463;-86
2023/07/10 01:54:49;;;;;;;9.33;6.07;;;18.50;61.50;;;;;;4905186;29;20037;-86
2023/07/10 01:57:17;;;;;;;10.77;6.07;;;18.50;61.50;;;;;;4882803;29;20123;-86
2023/07/10 01:59:44;;;;;;;9.38;6.30;;;18.50;61.50;;;;;;4906704;29;20051;-86
2023/07/10 02:02:49;;;;;;;11.05;6.15;;;18.50;61.50;;;;;;5273154;23;21748;-86
2023/07/10 02:05:17;;;;;;;11.00;6.70;;;18.50;61.50;;;;;;4842052;29;20046;-86
2023/07/10 02:07:45;;;;;;;11.07;6.23;;;18.50;61.60;;;;;;4856933;29;20042;-86
2023/07/10 02:10:12;;;;;;;12.13;6.80;;;18.40;61.70;;;;;;4855234;29;20067;-86
2023/07/10 02:12:39;;;;;;;10.32;6.00;;;18.30;61.90;;;;;;4855762;29;20407;-86
2023/07/10 02:15:07;;;;;;;11.70;6.32;;;18.30;61.60;;;;;;4846901;29;20045;-86
2023/07/10 02:17:34;;;;;;;11.27;6.63;;;18.30;61.80;;;;;;4865074;29;20050;-87
2023/07/10 02:20:01;;;;;;;12.27;6.37;;;18.20;62.30;;;;;;4863423;29;20103;-86
2023/07/10 02:22:28;;;;;;;9.95;6.30;;;18.20;62.50;;;;;;4866041;29;20077;-86
2023/07/10 02:24:55;;;;;;;10.18;6.22;;;18.10;62.50;;;;;;4856184;29;20508;-86
2023/07/10 02:27:22;;;;;;;11.70;6.57;;;18.10;62.50;;;;;;4846185;29;20500;-86
2023/07/10 02:29:49;;;;;;;10.95;6.65;;;18.00;62.80;;;;;;4851704;29;20140;-86
2023/07/10 02:32:16;;;;;;;11.00;6.90;;;18.10;62.70;;;;;;4869912;29;20049;-86
2023/07/10 02:34:43;;;;;;;9.95;6.25;;;18.10;62.70;;;;;;4864998;29;20489;-86
2023/07/10 02:37:10;;;;;;;11.13;7.03;;;18.10;62.70;;;;;;4848422;29;20045;-86
2023/07/10 02:39:37;;;;;;;10.38;6.47;;;18.20;62.50;;;;;;4850147;29;20065;-85
2023/07/10 02:42:05;;;;;;;10.27;7.07;;;18.20;62.50;;;;;;4865933;29;20037;-86
2023/07/10 02:44:33;;;;;;;10.13;6.57;;;18.20;62.70;;;;;;4847730;29;20064;-86
2023/07/10 02:47:00;;;;;;;11.35;6.97;;;18.10;63.00;;;;;;4865414;29;20049;-86
2023/07/10 02:49:27;;;;;;;9.88;6.55;;;18.10;63.10;;;;;;4852235;29;20046;-86
2023/07/10 02:51:54;;;;;;;9.55;6.05;;;18.10;63.40;;;;;;4837961;29;20041;-86
2023/07/10 02:54:21;;;;;;;10.35;6.88;;;18.10;63.00;;;;;;4865460;29;20141;-86
2023/07/10 02:56:48;;;;;;;10.30;6.63;;;18.10;62.80;;;;;;4866196;29;20105;-86
2023/07/10 02:59:15;;;;;;;12.43;6.40;;;18.10;63.10;;;;;;4852649;29;20492;-85
2023/07/10 03:01:42;;;;;;;10.07;6.43;;;18.10;63.00;;;;;;4831462;29;20045;-86
2023/07/10 03:04:09;;;;;;;9.38;5.82;;;18.10;63.10;;;;;;4873162;29;20560;-86
2023/07/10 03:06:36;;;;;;;10.73;6.78;;;18.10;62.90;;;;;;4851226;29;20037;-86
2023/07/10 03:09:04;;;;;;;9.70;5.77;;;18.10;62.90;;;;;;4867703;29;20459;-86
2023/07/10 03:11:31;;;;;;;9.15;5.90;;;18.10;62.80;;;;;;4867307;29;20073;-86
2023/07/10 03:13:58;;;;;;;10.52;6.95;;;18.10;62.70;;;;;;4851547;29;20052;-86
2023/07/10 03:16:26;;;;;;;11.48;6.40;;;18.10;63.00;;;;;;4859293;29;20168;-85
2023/07/10 03:18:53;;;;;;;13.10;7.05;;;18.10;63.00;;;;;;4859443;29;20049;-85
2023/07/10 03:21:19;;;;;;;11.40;6.60;;;18.00;62.70;;;;;;4870185;29;20040;-86
2023/07/10 03:23:50;;;;;;;10.77;6.53;;;18.10;62.70;;;;;;4873043;29;20045;-86
2023/07/10 03:26:17;;;;;;;11.18;6.65;;;18.10;63.00;;;;;;4862370;29;20512;-86
2023/07/10 03:28:45;;;;;;;12.50;6.88;;;18.10;62.70;;;;;;4855459;29;20045;-85
2023/07/10 03:31:35;;;;;;;10.38;6.22;;;18.10;63.20;;;;;;4859752;29;20050;-86
2023/07/10 03:34:02;;;;;;;10.40;6.43;;;18.10;63.20;;;;;;4855564;29;20132;-86
2023/07/10 03:36:30;;;;;;;10.82;6.85;;;18.20;62.70;;;;;;4861361;29;20492;-86
2023/07/10 03:38:58;;;;;;;11.52;6.40;;;18.30;62.70;;;;;;4860177;29;20038;-85
2023/07/10 03:41:25;;;;;;;10.65;6.40;;;18.30;62.30;;;;;;4862362;29;20057;-85
2023/07/10 03:43:54;;;;;;;11.05;7.25;;;18.30;62.30;;;;;;4861330;29;20060;-91
2023/07/10 03:46:22;;;;;;;12.83;6.40;;;18.40;62.40;;;;;;4828097;29;20180;-90
2023/07/10 03:48:49;;;;;;;13.55;6.80;;;18.40;62.30;;;;;;4843269;29;20100;-90
2023/07/10 03:51:17;;;;;;;10.05;6.30;;;18.40;62.40;;;;;;4827976;29;20042;-91
2023/07/10 03:53:46;;;;;;;10.52;6.50;;;18.40;62.40;;;;;;4843284;29;20052;-91
2023/07/10 03:56:16;;;;;;;11.40;6.32;;;18.40;62.30;;;;;;4843199;29;20076;-92
2023/07/10 03:58:44;;;;;;;10.90;7.00;;;18.50;62.30;;;;;;4844039;29;20086;-91
2023/07/10 04:01:15;;;;;;;10.85;6.53;;;18.50;62.30;;;;;;4843718;29;20504;-91
2023/07/10 04:03:43;;;;;;;11.35;6.38;;;18.60;61.70;;;;;;4843131;29;20066;-90
2023/07/10 04:06:13;;;;;;;10.48;6.60;;;18.60;61.90;;;;;;4862688;29;20122;-90
2023/07/10 04:08:42;;;;;;;10.82;6.78;;;18.60;61.90;;;;;;4862243;29;20057;-90
2023/07/10 04:11:12;;;;;;;10.63;6.77;;;18.60;61.90;;;;;;4862221;29;20424;-92
2023/07/10 04:13:40;;;;;;;12.43;6.72;;;18.60;61.80;;;;;;4859700;29;20496;-92
2023/07/10 04:16:16;;;;;;;12.00;6.55;;;18.60;62.00;;;;;;4864966;29;20078;-92
2023/07/10 04:18:46;;;;;;;9.50;5.78;;;18.70;62.10;;;;;;4867439;29;20042;-93
2023/07/10 04:21:27;;;;;;;11.30;6.63;;;18.70;61.80;;;;;;4852735;29;20112;-92
2023/07/10 04:23:55;;;;;;;13.90;6.80;;;18.80;61.70;;;;;;4868170;29;20053;-93
2023/07/10 04:26:29;;;;;;;9.60;6.30;;;18.90;61.30;;;;;;4854274;29;20060;-93
2023/07/10 04:29:00;;;;;;;12.45;7.10;;;18.90;61.30;;;;;;4869275;29;20058;-93
2023/07/10 04:31:28;;;;;;;11.35;6.70;;;18.90;60.80;;;;;;4853718;29;20500;-93
2023/07/10 04:33:59;;;;;;;11.05;6.18;;;19.00;61.20;;;;;;4850440;29;20084;-93
2023/07/10 04:36:27;;;;;;;10.93;6.70;;;19.00;61.20;;;;;;4833995;29;20046;-93
2023/07/10 04:38:54;;;;;;;10.65;7.03;;;19.00;61.10;;;;;;4835893;29;20083;-93
2023/07/10 04:41:27;;;;;;;11.25;7.43;;;19.00;61.10;;;;;;4835655;29;20054;-93
2023/07/10 04:43:58;;;;;;;10.48;7.60;;;19.00;61.20;;;;;;4853838;29;20136;-93
2023/07/10 04:46:25;;;;;;;12.93;8.73;;;19.00;61.30;;;;;;4837623;29;20057;-94
2023/07/10 04:48:53;;;;;;;16.63;8.40;;;19.00;61.40;;;;;;4833346;29;20058;-93
2023/07/10 04:51:21;;;;;;;10.77;7.55;;;19.10;61.20;;;;;;4832721;29;20122;-93
2023/07/10 04:53:49;;;;;;;10.77;7.07;;;19.20;60.80;;;;;;4832729;29;20042;-93
2023/07/10 04:56:18;;;;;;;12.43;7.05;;;19.40;60.80;;;;;;4831197;29;20058;-92
2023/07/10 04:58:54;;;;;;;12.98;7.00;;;19.50;60.40;;;;;;4831256;29;20046;-93
2023/07/10 05:01:28;;;;;;;12.43;7.10;;;19.60;60.00;;;;;;4831407;29;20138;-93
2023/07/10 05:03:57;;;;;;;11.20;6.50;;;19.70;60.20;;;;;;4831131;29;20064;-92
2023/07/10 05:06:31;;;;;;;10.07;6.68;;;19.70;60.10;;;;;;4846050;29;20146;-93
2023/07/10 05:08:59;;;;;;;12.77;6.68;;;19.80;60.40;;;;;;4830746;29;20154;-93
2023/07/10 05:11:29;;;;;;;10.80;6.57;;;19.90;60.10;;;;;;4831168;29;20111;-93
2023/07/10 05:13:57;;;;;;;12.20;6.83;;;20.00;59.90;;;;;;4834351;29;20054;-92
2023/07/10 05:16:25;;;;;;;10.52;6.55;;;20.10;59.50;;;;;;4832718;29;20413;-93
2023/07/10 05:18:55;;;;;;;10.85;6.18;;;20.10;59.40;;;;;;4832497;29;20058;-93
2023/07/10 05:21:25;;;;;;;11.52;6.60;;;20.30;59.10;;;;;;4831852;29;20046;-93
2023/07/10 05:23:53;;;;;;;10.93;6.97;;;20.50;59.10;;;;;;4831659;29;20060;-93
2023/07/10 05:26:23;;;;;;;10.27;6.53;;;20.60;58.00;;;;;;4834219;29;20145;-94
2023/07/10 05:28:50;;;;;;;10.32;5.90;;;20.60;58.20;;;;;;4831989;29;20102;-93
2023/07/10 05:31:17;;;;;;;10.02;7.10;;;20.80;57.50;;;;;;4830866;29;20042;-92
2023/07/10 05:33:48;;;;;;;9.45;6.30;;;20.90;58.10;;;;;;4831672;29;20050;-93
2023/07/10 05:36:18;;;;;;;9.75;6.03;;;21.00;57.50;;;;;;4831592;29;20042;-93
2023/07/10 05:38:48;;;;;;;15.77;6.70;;;21.10;56.80;;;;;;4831778;29;20081;-93
2023/07/10 05:41:19;;;;;;;10.40;7.15;;;21.10;56.90;;;;;;4831902;29;20078;-93
2023/07/10 05:43:47;;;;;;;10.45;6.38;;;21.20;57.00;;;;;;4834357;29;20060;-93
2023/07/10 05:46:17;;;;;;;10.48;6.47;;;21.40;57.20;;;;;;4845686;29;20054;-94
2023/07/10 05:48:45;;;;;;;10.05;7.00;;;21.50;56.60;;;;;;4831660;29;20504;-93
2023/07/10 05:51:12;;;;;;;9.07;6.13;;;21.60;56.60;;;;;;4830729;29;20057;-93
2023/07/10 05:53:39;;;;;;;10.30;5.95;;;21.70;56.90;;;;;;4831454;29;20129;-93
2023/07/10 05:56:06;;;;;;;9.57;6.50;;;21.70;56.60;;;;;;4832685;29;20046;-93
2023/07/10 05:58:40;;;;;;;11.23;6.90;;;21.90;56.70;;;;;;4835981;29;20042;-93
2023/07/10 06:01:09;;;;;;;11.98;6.65;;;22.10;56.40;;;;;;4837097;29;20053;-94
2023/07/10 06:03:37;;;;;;;9.87;6.07;;;22.30;56.20;;;;;;4835223;29;20068;-94
2023/07/10 06:06:06;;;;;;;9.98;6.53;;;22.50;54.90;;;;;;4818479;29;20073;-93
2023/07/10 06:08:35;;;;;;;11.60;6.78;;;22.60;54.90;;;;;;4833172;29;20065;-92
2023/07/10 06:11:05;;;;;;;10.25;6.28;;;22.90;55.10;;;;;;4836306;29;20501;-92
2023/07/10 06:13:38;;;;;;;12.20;7.10;;;23.00;54.10;;;;;;4836600;29;20114;-93
2023/07/10 06:16:11;;;;;;;9.90;6.53;;;23.10;54.10;;;;;;4837924;29;20113;-93
2023/07/10 06:18:39;;;;;;;10.25;7.32;;;23.10;54.00;;;;;;4837553;29;20504;-93
2023/07/10 06:21:13;;;;;;;10.13;7.15;;;23.30;53.90;;;;;;4835242;29;20125;-93
2023/07/10 06:23:41;;;;;;;10.65;6.50;;;23.10;53.00;;;;;;4836874;29;20126;-94
2023/07/10 06:26:09;;;;;;;11.70;7.15;;;23.20;53.50;;;;;;4838093;29;20050;-93
2023/07/10 06:28:38;;;;;;;10.10;6.43;;;23.30;53.40;;;;;;4838407;29;20492;-93
2023/07/10 06:31:10;;;;;;;10.63;6.78;;;23.50;53.70;;;;;;4837207;29;20112;-93
2023/07/10 06:33:38;;;;;;;9.45;6.90;;;23.60;53.50;;;;;;4837346;29;20046;-93
2023/07/10 06:36:09;;;;;;;10.15;6.43;;;23.70;53.40;;;;;;4837226;29;20458;-93
2023/07/10 06:38:44;;;;;;;9.07;6.15;;;23.90;53.50;;;;;;4836768;29;20062;-93
2023/07/10 06:41:13;;;;;;;9.77;6.53;;;24.00;52.80;;;;;;4821896;29;20524;-93
2023/07/10 06:43:42;;;;;;;11.07;5.93;;;24.00;52.70;;;;;;4822531;29;20177;-94
2023/07/10 06:46:09;;;;;;;10.15;6.28;;;24.20;52.80;;;;;;4831144;29;20145;-92
2023/07/10 06:48:39;;;;;;;8.68;6.07;;;24.40;51.90;;;;;;4831247;29;20050;-92
2023/07/10 06:51:06;;;;;;;11.05;6.65;;;24.50;52.00;;;;;;4829869;29;20098;-92
2023/07/10 06:53:34;;;;;;;10.20;6.60;;;24.60;51.40;;;;;;4830555;29;20062;-93
2023/07/10 06:56:02;;;;;;;11.10;6.45;;;24.70;52.00;;;;;;4831229;29;20062;-93
2023/07/10 06:58:31;;;;;;;11.63;6.45;;;24.90;50.40;;;;;;4830166;29;20054;-93
2023/07/10 07:01:00;;;;;;;9.73;6.40;;;25.10;50.60;;;;;;4829887;29;20050;-92
2023/07/10 07:03:28;;;;;;;9.50;6.63;;;25.30;49.90;;;;;;4830820;29;20046;-93
2023/07/10 07:05:55;;;;;;;12.03;6.77;;;25.40;50.00;;;;;;4830074;29;20049;-93
2023/07/10 07:08:23;;;;;;;9.18;6.60;;;25.60;50.90;;;;;;4831620;29;20050;-93
2023/07/10 07:10:54;;;;;;;9.45;6.90;;;25.90;49.70;;;;;;4829723;29;20070;-93
2023/07/10 07:13:21;;;;;;;10.43;5.72;;;26.10;50.40;;;;;;4829918;29;20046;-93
2023/07/10 07:15:50;;;;;;;10.95;6.10;;;26.10;48.10;;;;;;4829215;29;20133;-93
2023/07/10 07:18:17;;;;;;;10.17;5.53;;;26.10;48.70;;;;;;4830715;29;20081;-92
2023/07/10 07:20:44;;;;;;;9.00;5.18;;;26.00;49.10;;;;;;4847359;29;20050;-92
2023/07/10 07:23:11;;;;;;;9.40;5.00;;;26.10;48.30;;;;;;4847384;29;20057;-92
2023/07/10 07:25:40;;;;;;;10.98;5.30;;;26.00;49.50;;;;;;4846917;29;20475;-93
2023/07/10 07:28:07;;;;;;;8.13;4.82;;;26.20;51.40;;;;;;4831699;29;20050;-93
2023/07/10 07:30:35;;;;;;;10.07;4.93;;;26.50;49.10;;;;;;4846657;29;20049;-92
2023/07/10 07:33:05;;;;;;;9.32;5.88;;;26.70;49.50;;;;;;4825418;29;20045;-93
2023/07/10 07:35:32;;;;;;;9.75;5.72;;;26.90;48.30;;;;;;4843307;29;20079;-92
2023/07/10 07:37:59;;;;;;;9.18;5.60;;;27.10;49.80;;;;;;4828956;29;20110;-93
2023/07/10 07:40:27;;;;;;;11.98;5.35;;;27.20;48.70;;;;;;4828611;29;20054;-92
2023/07/10 07:42:54;;;;;;;9.07;4.97;;;27.30;48.70;;;;;;4813286;29;20041;-92
2023/07/10 07:45:23;;;;;;;11.50;5.15;;;27.30;48.10;;;;;;4828903;29;20053;-93
2023/07/10 07:47:51;;;;;;;8.18;4.70;;;27.20;48.70;;;;;;4828573;29;20050;-93
2023/07/10 07:50:20;;;;;;;10.30;5.18;;;27.10;48.50;;;;;;4828748;29;20092;-93
2023/07/10 07:52:47;;;;;;;23.17;6.18;;;27.10;48.40;;;;;;4828432;29;20046;-93
2023/07/10 07:55:15;;;;;;;8.17;4.80;;;27.10;48.80;;;;;;4828434;29;20072;-93
2023/07/10 07:57:42;;;;;;;11.50;5.38;;;27.20;48.80;;;;;;4813010;29;20512;-92
2023/07/10 08:00:10;;;;;;;9.05;5.32;;;27.10;47.70;;;;;;4828247;29;20493;-93
2023/07/10 08:02:42;;;;;;;7.82;4.45;;;27.10;47.80;;;;;;4830252;29;20520;-93
2023/07/10 08:05:10;;;;;;;10.00;4.82;;;27.10;48.00;;;;;;4831315;29;20254;-93
2023/07/10 08:07:57;;;;;;;10.23;5.37;;;27.20;49.10;;;;;;4833827;29;20106;-93
2023/07/10 08:10:24;;;;;;;10.00;5.40;;;27.30;49.20;;;;;;4833212;29;20088;-93
2023/07/10 08:12:52;;;;;;;11.45;4.75;;;27.40;48.50;;;;;;4831675;29;20045;-93
2023/07/10 08:15:21;;;;;;;19.08;5.53;;;27.50;48.20;;;;;;4833332;29;20049;-94
2023/07/10 08:17:48;;;;;;;9.68;5.25;;;27.60;48.70;;;;;;4837831;29;20053;-93
2023/07/10 08:20:20;;;;;;;9.23;4.40;;;27.60;48.60;;;;;;4838405;29;20113;-93
2023/07/10 08:22:48;;;;;;;10.07;4.70;;;27.60;48.50;;;;;;4856006;29;20144;-93
2023/07/10 08:25:15;;;;;;;7.93;4.53;;;27.60;47.50;;;;;;4840199;29;20049;-93
2023/07/10 08:27:44;;;;;;;8.68;4.30;;;27.80;46.80;;;;;;4839678;29;20046;-94
2023/07/10 08:30:13;;;;;;;9.75;4.38;;;28.10;45.70;;;;;;4844202;29;20049;-93
2023/07/10 08:32:40;;;;;;;8.53;4.17;;;28.30;45.20;;;;;;4869307;29;20056;-92
2023/07/10 08:35:08;;;;;;;9.23;4.65;;;28.40;44.90;;;;;;4838387;29;20136;-92
2023/07/10 08:37:37;;;;;;;10.40;4.53;;;28.30;44.00;;;;;;4836875;29;20053;-94
2023/07/10 08:40:15;;;;;;;9.13;4.50;;;28.40;43.80;;;;;;4834808;29;20409;-94
2023/07/10 08:42:43;;;;;;;9.52;4.07;;;28.70;43.50;;;;;;4834863;29;20520;-93
2023/07/10 08:45:30;;;;;;;8.47;4.10;;;28.90;41.50;;;;;;4834654;29;20074;-94
2023/07/10 08:48:15;;;;;;;8.35;3.70;;;29.10;38.60;;;;;;4834624;29;20061;-93
2023/07/10 08:50:47;;;;;;;8.77;4.10;;;29.10;37.10;;;;;;4834910;29;20106;-93
2023/07/10 08:53:21;;;;;;;8.45;3.97;;;29.10;38.20;;;;;;4834264;29;20088;-93
2023/07/10 08:56:03;;;;;;;7.55;3.80;;;29.10;37.20;;;;;;4834407;29;20041;-93
2023/07/10 08:58:36;;;;;;;7.13;3.37;;;29.00;38.70;;;;;;4834186;29;20144;-93
2023/07/10 09:01:20;;;;;;;8.10;3.75;;;29.00;39.30;;;;;;4834284;29;20412;-94
2023/07/10 09:03:51;;;;;;;9.38;4.10;;;28.90;39.90;;;;;;4834162;29;20061;-93
2023/07/10 09:06:24;;;;;;;8.73;4.20;;;28.70;39.80;;;;;;4834168;29;20050;-93
2023/07/10 09:08:53;;;;;;;7.80;3.80;;;28.60;40.90;;;;;;4834056;29;20077;-93
2023/07/10 09:11:22;;;;;;;8.40;4.10;;;28.60;40.90;;;;;;4833688;29;20567;-94
2023/07/10 09:13:58;;;;;;;8.82;4.10;;;28.60;42.10;;;;;;4834124;29;20144;-93
2023/07/10 09:16:26;;;;;;;9.95;4.30;;;28.70;42.60;;;;;;4833904;29;20057;-94
2023/07/10 09:19:16;;;;;;;9.52;4.55;;;29.00;42.50;;;;;;4833878;29;20152;-94
2023/07/10 09:21:43;;;;;;;7.55;4.38;;;29.30;40.70;;;;;;4834125;29;20053;-94
2023/07/10 09:24:19;;;;;;;7.87;4.20;;;29.60;39.10;;;;;;4834387;29;20119;-94
2023/07/10 09:26:47;;;;;;;6.82;3.20;;;30.00;40.00;;;;;;4834834;29;20527;-94
2023/07/10 09:29:22;;;;;;;8.45;3.92;;;30.10;35.50;;;;;;4833156;29;20045;-94
2023/07/10 09:31:53;;;;;;;8.35;4.03;;;30.00;35.90;;;;;;4849103;29;20219;-94
2023/07/10 09:34:29;;;;;;;7.75;3.60;;;30.10;37.70;;;;;;4833904;29;20107;-93
2023/07/10 09:36:58;;;;;;;7.43;3.53;;;30.10;38.10;;;;;;4833757;29;20081;-94
2023/07/10 09:39:31;;;;;;;7.25;3.58;;;30.00;36.00;;;;;;4833842;29;20090;-93
2023/07/10 09:42:00;;;;;;;7.28;3.60;;;29.90;35.40;;;;;;4833790;29;20444;-94
2023/07/10 09:44:39;;;;;;;9.05;3.88;;;29.80;36.40;;;;;;4834214;29;20500;-94
2023/07/10 09:47:15;;;;;;;7.70;3.78;;;29.90;36.10;;;;;;4833877;29;20057;-94
2023/07/10 09:49:51;;;;;;;8.37;4.00;;;30.10;36.80;;;;;;4833295;29;20050;-94
2023/07/10 09:52:22;;;;;;;7.55;3.80;;;30.10;37.10;;;;;;4833066;29;20045;-93
2023/07/10 09:55:01;;;;;;;6.50;3.38;;;30.00;37.40;;;;;;4849180;29;20053;-94
2023/07/10 09:57:29;;;;;;;7.30;3.47;;;29.90;36.00;;;;;;4833873;29;20102;-93
2023/07/10 09:59:59;;;;;;;8.77;3.90;;;29.90;35.90;;;;;;4833015;29;20046;-94
2023/07/10 10:02:33;;;;;;;7.33;3.67;;;29.80;35.80;;;;;;4833467;29;20073;-93
2023/07/10 10:05:19;;;;;;;7.63;3.40;;;29.70;36.70;;;;;;4832985;29;20608;-94
2023/07/10 10:07:49;;;;;;;8.65;3.80;;;29.70;38.20;;;;;;4833623;29;20053;-94
2023/07/10 10:10:31;;;;;;;7.30;3.97;;;29.80;38.40;;;;;;4833004;29;20140;-93
2023/07/10 10:13:25;;;;;;;7.38;3.70;;;30.00;36.40;;;;;;4833407;29;20053;-94
2023/07/10 10:16:20;;;;;;;9.87;4.00;;;30.00;36.40;;;;;;4833556;29;20088;-93
2023/07/10 10:18:53;;;;;;;7.55;3.83;;;29.90;35.70;;;;;;4855678;29;20045;-93
2023/07/10 10:21:22;;;;;;;8.07;3.60;;;29.90;35.80;;;;;;4851002;29;20056;-93
2023/07/10 10:23:52;;;;;;;6.72;3.45;;;29.80;34.70;;;;;;4845316;29;20046;-94
2023/07/10 10:26:38;;;;;;;18.80;4.50;;;29.90;35.40;;;;;;4832570;29;20059;-95
2023/07/10 10:29:27;;;;;;;9.70;3.77;;;30.10;35.50;;;;;;4832728;29;20572;-95
2023/07/10 10:32:21;;;;;;;7.03;3.40;;;30.20;35.10;;;;;;4832885;29;20041;-94
2023/07/10 10:35:30;;;;;;;7.35;3.53;;;30.40;34.50;;;;;;4832868;29;20053;-94
2023/07/10 10:38:12;;;;;;;6.60;3.67;;;30.50;33.40;;;;;;4792605;29;20047;-94
2023/07/10 10:40:51;;;;;;;8.35;4.15;;;30.60;34.50;;;;;;4829086;29;20564;-95
2023/07/10 10:43:32;;;;;;;7.00;3.90;;;30.50;35.60;;;;;;4832594;29;20132;-94
2023/07/10 10:46:07;;;;;;;9.73;4.18;;;30.50;34.00;;;;;;4848656;29;20100;-95
2023/07/10 10:49:07;;;;;;;9.65;4.43;;;30.60;34.60;;;;;;4832268;29;20064;-94
2023/07/10 10:51:42;;;;;;;7.53;4.15;;;30.80;34.40;;;;;;4824724;29;20504;-94
2023/07/10 10:54:43;;;;;;;7.88;4.20;;;30.70;36.00;;;;;;4832374;29;20053;-94
2023/07/10 10:57:33;;;;;;;8.40;3.80;;;30.60;34.80;;;;;;4832406;29;20496;-95
2023/07/10 11:00:42;;;;;;;39.13;5.47;;;30.50;34.40;;;;;;4833607;29;20512;-95
2023/07/10 11:03:30;;;;;;;8.88;4.03;;;30.40;36.30;;;;;;4832854;29;20575;-94
2023/07/10 11:06:20;;;;;;;8.95;4.00;;;30.30;36.90;;;;;;4833069;29;20050;-94
2023/07/10 11:08:50;;;;;;;8.05;3.88;;;30.20;37.30;;;;;;4838520;29;20053;-95
2023/07/10 11:11:28;;;;;;;8.67;4.17;;;30.10;38.40;;;;;;4832898;29;20508;-94
2023/07/10 11:13:58;;;;;;;8.18;4.35;;;30.10;38.30;;;;;;4832976;29;20571;-94
2023/07/10 11:16:28;;;;;;;7.60;4.10;;;30.10;38.40;;;;;;4832220;29;20449;-93
2023/07/10 11:19:02;;;;;;;9.25;4.07;;;30.10;38.40;;;;;;4831833;29;20049;-94
2023/07/10 11:21:31;;;;;;;9.25;3.97;;;30.10;37.90;;;;;;4833016;29;20410;-94
2023/07/10 11:24:12;;;;;;;7.30;3.83;;;30.10;37.00;;;;;;4832158;29;20056;-94
2023/07/10 11:26:41;;;;;;;7.60;3.95;;;30.10;38.40;;;;;;4832312;29;20077;-94
2023/07/10 11:29:37;;;;;;;7.53;4.40;;;30.20;37.00;;;;;;4832520;29;20128;-94
2023/07/10 11:32:21;;;;;;;15.43;6.30;;;30.10;35.80;;;;;;4831534;29;20045;-94
2023/07/10 11:35:12;;;;;;;11.18;5.88;;;30.10;36.30;;;;;;4831987;29;20046;-95
2023/07/10 11:37:48;;;;;;;13.40;5.63;;;30.10;38.10;;;;;;4832635;29;20045;-94
2023/07/10 11:40:27;;;;;;;12.95;6.35;;;30.10;40.60;;;;;;4832191;29;20049;-94
2023/07/10 11:42:55;;;;;;;15.40;6.70;;;30.10;38.90;;;;;;4831701;29;20559;-94
2023/07/10 11:45:36;;;;;;;15.43;5.70;;;30.20;39.80;;;;;;4831617;29;20057;-94
2023/07/10 11:48:39;;;;;;;12.63;5.50;;;30.40;39.20;;;;;;4831865;29;20058;-94
2023/07/10 11:51:33;;;;;;;10.30;4.80;;;30.60;39.80;;;;;;4831387;29;20052;-95
2023/07/10 11:54:04;;;;;;;9.15;4.88;;;30.60;39.10;;;;;;4830943;29;20046;-94
2023/07/10 11:56:32;;;;;;;8.25;4.55;;;30.50;39.40;;;;;;4831894;29;20497;-95
2023/07/10 11:59:14;;;;;;;10.43;4.60;;;30.30;39.60;;;;;;4830937;29;20048;-94
2023/07/10 12:01:42;;;;;;;11.25;4.70;;;30.10;41.40;;;;;;4831351;29;20500;-94
2023/07/10 12:04:18;;;;;;;10.97;4.70;;;29.90;41.60;;;;;;4831037;29;20141;-94
2023/07/10 12:06:49;;;;;;;10.07;4.03;;;29.70;41.00;;;;;;4831640;29;20101;-95
2023/07/10 12:09:16;;;;;;;8.25;4.30;;;29.60;41.00;;;;;;4831021;29;20097;-94
2023/07/10 12:11:45;;;;;;;10.38;4.60;;;29.50;41.40;;;;;;4830920;29;20109;-93
2023/07/10 12:14:16;;;;;;;28.30;5.55;;;29.40;41.20;;;;;;4831209;29;20080;-94
2023/07/10 12:16:57;;;;;;;9.87;4.63;;;29.40;41.70;;;;;;4831387;29;20094;-94
2023/07/10 12:19:34;;;;;;;9.40;4.50;;;29.50;42.00;;;;;;4831832;29;20046;-94
2023/07/10 12:22:15;;;;;;;13.45;5.13;;;29.50;43.80;;;;;;4831216;29;20144;-94
2023/07/10 12:24:48;;;;;;;9.93;4.75;;;29.50;46.10;;;;;;4831117;29;20057;-94
2023/07/10 12:27:16;;;;;;;13.13;5.30;;;29.60;46.30;;;;;;4830965;29;20069;-94
2023/07/10 12:30:13;;;;;;;9.47;4.67;;;29.60;45.00;;;;;;4833437;29;20046;-94
2023/07/10 12:32:43;;;;;;;9.95;5.10;;;29.70;43.40;;;;;;4831082;29;20595;-94
2023/07/10 12:35:31;;;;;;;12.30;4.75;;;29.80;44.50;;;;;;4830763;29;20050;-94
2023/07/10 12:38:01;;;;;;;11.65;4.45;;;30.00;45.30;;;;;;4830795;29;20050;-94
2023/07/10 12:40:29;;;;;;;54.58;6.72;;;30.10;42.20;;;;;;4830644;29;20042;-94
2023/07/10 12:43:20;;;;;;;8.60;4.37;;;30.20;42.00;;;;;;4836365;29;20172;-94
2023/07/10 12:45:56;;;;;;;10.52;4.57;;;30.10;40.50;;;;;;4849477;29;20048;-93
2023/07/10 12:48:25;;;;;;;7.45;4.57;;;30.10;40.20;;;;;;4815012;29;20077;-94
2023/07/10 12:50:56;;;;;;;9.30;4.45;;;30.00;41.80;;;;;;4827425;29;20496;-94
2023/07/10 12:53:26;;;;;;;10.27;4.95;;;30.00;41.90;;;;;;4861012;29;20056;-95
2023/07/10 12:56:06;;;;;;;18.03;5.17;;;30.00;41.90;;;;;;4830056;29;20049;-91
2023/07/10 12:58:37;;;;;;;9.25;5.28;;;30.00;40.70;;;;;;4835787;29;20073;-92
2023/07/10 13:01:21;;;;;;;17.55;5.03;;;30.10;41.20;;;;;;4834860;29;20042;-91
2023/07/10 13:04:20;;;;;;;11.23;4.82;;;30.20;41.00;;;;;;4836518;29;20064;-91
2023/07/10 13:07:02;;;;;;;8.77;5.07;;;30.20;41.60;;;;;;4834283;29;20049;-91